sensor_id;sensor_type;location;lat;lon;timestamp;P1;durP1;ratioP1;P2;durP2;ratioP2
20449;SDS011;10384;51.940;8.432;2022-09-09T00:00:22;1.73;;;1.10;;
20449;SDS011;10384;51.940;8.432;2022-09-09T00:02:57;2.33;;;1.00;;
20449;SDS011;10384;51.940;8.432;2022-09-09T00:05:28;3.70;;;0.97;;
20449;SDS011;10384;51.940;8.432;2022-09-09T00:07:55;3.17;;;0.80;;
20449;SDS011;10384;51.940;8.432;2022-09-09T00:15:41;3.00;;;0.90;;
20449;SDS011;10384;51.940;8.432;2022-09-09T00:20:54;1.17;;;0.80;;
20449;SDS011;10384;51.940;8.432;2022-09-09T00:23:26;3.50;;;0.93;;
20449;SDS011;10384;51.940;8.432;2022-09-09T00:28:28;1.80;;;1.10;;
20449;SDS011;10384;51.940;8.432;2022-09-09T00:30:57;2.60;;;1.00;;
20449;SDS011;10384;51.940;8.432;2022-09-09T00:33:26;3.17;;;1.27;;
20449;SDS011;10384;51.940;8.432;2022-09-09T00:35:56;4.93;;;1.20;;
20449;SDS011;10384;51.940;8.432;2022-09-09T00:38:28;1.50;;;0.90;;
20449;SDS011;10384;51.940;8.432;2022-09-09T00:41:03;1.97;;;0.80;;
20449;SDS011;10384;51.940;8.432;2022-09-09T00:43:37;2.80;;;0.97;;
20449;SDS011;10384;51.940;8.432;2022-09-09T00:51:17;2.47;;;1.00;;
20449;SDS011;10384;51.940;8.432;2022-09-09T00:53:57;1.57;;;1.00;;
20449;SDS011;10384;51.940;8.432;2022-09-09T00:56:25;2.77;;;1.40;;
20449;SDS011;10384;51.940;8.432;2022-09-09T00:59:00;1.70;;;1.30;;
20449;SDS011;10384;51.940;8.432;2022-09-09T01:01:28;1.73;;;1.17;;
20449;SDS011;10384;51.940;8.432;2022-09-09T01:03:55;2.60;;;1.40;;
20449;SDS011;10384;51.940;8.432;2022-09-09T01:06:29;2.13;;;1.40;;
20449;SDS011;10384;51.940;8.432;2022-09-09T01:09:02;3.20;;;1.30;;
20449;SDS011;10384;51.940;8.432;2022-09-09T01:14:48;1.80;;;1.30;;
20449;SDS011;10384;51.940;8.432;2022-09-09T01:16:50;5.37;;;1.10;;
20449;SDS011;10384;51.940;8.432;2022-09-09T01:19:19;2.60;;;0.90;;
20449;SDS011;10384;51.940;8.432;2022-09-09T01:21:50;2.13;;;1.20;;
20449;SDS011;10384;51.940;8.432;2022-09-09T01:27:03;4.53;;;1.30;;
20449;SDS011;10384;51.940;8.432;2022-09-09T01:29:31;4.87;;;1.03;;
20449;SDS011;10384;51.940;8.432;2022-09-09T01:31:59;2.10;;;1.00;;
20449;SDS011;10384;51.940;8.432;2022-09-09T01:34:27;3.53;;;1.10;;
20449;SDS011;10384;51.940;8.432;2022-09-09T01:39:20;2.17;;;1.03;;
20449;SDS011;10384;51.940;8.432;2022-09-09T01:41:46;1.97;;;1.10;;
20449;SDS011;10384;51.940;8.432;2022-09-09T01:44:12;2.13;;;1.20;;
20449;SDS011;10384;51.940;8.432;2022-09-09T01:46:39;1.40;;;0.90;;
20449;SDS011;10384;51.940;8.432;2022-09-09T01:49:05;2.43;;;1.00;;
20449;SDS011;10384;51.940;8.432;2022-09-09T01:51:32;4.23;;;0.93;;
20449;SDS011;10384;51.940;8.432;2022-09-09T01:53:59;4.10;;;1.10;;
20449;SDS011;10384;51.940;8.432;2022-09-09T01:59:00;2.80;;;1.07;;
20449;SDS011;10384;51.940;8.432;2022-09-09T02:06:59;2.23;;;1.00;;
20449;SDS011;10384;51.940;8.432;2022-09-09T02:09:25;1.60;;;1.00;;
20449;SDS011;10384;51.940;8.432;2022-09-09T02:11:55;1.80;;;1.10;;
20449;SDS011;10384;51.940;8.432;2022-09-09T02:14:25;2.80;;;1.20;;
20449;SDS011;10384;51.940;8.432;2022-09-09T02:19:49;0.90;;;0.77;;
20449;SDS011;10384;51.940;8.432;2022-09-09T02:22:17;2.70;;;1.00;;
20449;SDS011;10384;51.940;8.432;2022-09-09T02:24:44;1.67;;;0.73;;
20449;SDS011;10384;51.940;8.432;2022-09-09T02:27:11;5.17;;;1.13;;
20449;SDS011;10384;51.940;8.432;2022-09-09T02:29:40;1.40;;;0.80;;
20449;SDS011;10384;51.940;8.432;2022-09-09T02:32:07;2.37;;;0.77;;
20449;SDS011;10384;51.940;8.432;2022-09-09T02:34:35;1.90;;;0.77;;
20449;SDS011;10384;51.940;8.432;2022-09-09T02:37:03;1.40;;;0.97;;
20449;SDS011;10384;51.940;8.432;2022-09-09T02:39:29;2.10;;;0.90;;
20449;SDS011;10384;51.940;8.432;2022-09-09T02:41:55;1.60;;;1.00;;
20449;SDS011;10384;51.940;8.432;2022-09-09T02:44:21;1.50;;;1.00;;
20449;SDS011;10384;51.940;8.432;2022-09-09T02:49:40;1.93;;;0.97;;
20449;SDS011;10384;51.940;8.432;2022-09-09T02:52:08;2.97;;;1.40;;
20449;SDS011;10384;51.940;8.432;2022-09-09T02:54:41;2.17;;;1.10;;
20449;SDS011;10384;51.940;8.432;2022-09-09T02:59:37;3.47;;;1.43;;
20449;SDS011;10384;51.940;8.432;2022-09-09T03:02:03;2.83;;;1.40;;
20449;SDS011;10384;51.940;8.432;2022-09-09T03:04:29;2.50;;;1.40;;
20449;SDS011;10384;51.940;8.432;2022-09-09T03:06:56;3.30;;;1.20;;
20449;SDS011;10384;51.940;8.432;2022-09-09T03:09:22;3.80;;;1.60;;
20449;SDS011;10384;51.940;8.432;2022-09-09T03:11:48;2.33;;;1.40;;
20449;SDS011;10384;51.940;8.432;2022-09-09T03:14:14;3.40;;;1.30;;
20449;SDS011;10384;51.940;8.432;2022-09-09T03:16:41;1.53;;;1.13;;
20449;SDS011;10384;51.940;8.432;2022-09-09T03:19:08;2.87;;;1.17;;
20449;SDS011;10384;51.940;8.432;2022-09-09T03:21:34;4.63;;;1.20;;
20449;SDS011;10384;51.940;8.432;2022-09-09T03:24:00;3.17;;;1.30;;
20449;SDS011;10384;51.940;8.432;2022-09-09T03:26:28;4.60;;;1.57;;
20449;SDS011;10384;51.940;8.432;2022-09-09T03:28:55;2.90;;;1.57;;
20449;SDS011;10384;51.940;8.432;2022-09-09T03:31:21;4.97;;;1.40;;
20449;SDS011;10384;51.940;8.432;2022-09-09T03:33:47;1.93;;;1.40;;
20449;SDS011;10384;51.940;8.432;2022-09-09T03:36:13;3.80;;;1.53;;
20449;SDS011;10384;51.940;8.432;2022-09-09T03:38:39;4.10;;;1.50;;
20449;SDS011;10384;51.940;8.432;2022-09-09T03:41:05;3.30;;;1.40;;
20449;SDS011;10384;51.940;8.432;2022-09-09T03:43:32;2.67;;;1.50;;
20449;SDS011;10384;51.940;8.432;2022-09-09T03:45:59;4.03;;;1.50;;
20449;SDS011;10384;51.940;8.432;2022-09-09T03:48:25;5.10;;;1.60;;
20449;SDS011;10384;51.940;8.432;2022-09-09T03:50:53;2.40;;;1.50;;
20449;SDS011;10384;51.940;8.432;2022-09-09T03:53:20;2.33;;;1.27;;
20449;SDS011;10384;51.940;8.432;2022-09-09T03:55:47;5.50;;;1.40;;
20449;SDS011;10384;51.940;8.432;2022-09-09T03:58:13;3.77;;;1.40;;
20449;SDS011;10384;51.940;8.432;2022-09-09T04:00:40;5.47;;;1.33;;
20449;SDS011;10384;51.940;8.432;2022-09-09T04:03:10;2.93;;;1.27;;
20449;SDS011;10384;51.940;8.432;2022-09-09T04:05:36;4.20;;;1.30;;
20449;SDS011;10384;51.940;8.432;2022-09-09T04:08:05;7.87;;;1.47;;
20449;SDS011;10384;51.940;8.432;2022-09-09T04:10:31;2.80;;;1.20;;
20449;SDS011;10384;51.940;8.432;2022-09-09T04:12:57;3.47;;;1.30;;
20449;SDS011;10384;51.940;8.432;2022-09-09T04:15:24;2.30;;;1.13;;
20449;SDS011;10384;51.940;8.432;2022-09-09T04:17:50;4.27;;;1.20;;
20449;SDS011;10384;51.940;8.432;2022-09-09T04:20:16;2.27;;;1.40;;
20449;SDS011;10384;51.940;8.432;2022-09-09T04:22:42;2.57;;;1.63;;
20449;SDS011;10384;51.940;8.432;2022-09-09T04:25:08;3.63;;;1.60;;
20449;SDS011;10384;51.940;8.432;2022-09-09T04:27:34;4.17;;;1.50;;
20449;SDS011;10384;51.940;8.432;2022-09-09T04:30:00;2.97;;;1.80;;
20449;SDS011;10384;51.940;8.432;2022-09-09T04:32:26;4.27;;;1.47;;
20449;SDS011;10384;51.940;8.432;2022-09-09T04:34:52;4.87;;;2.10;;
20449;SDS011;10384;51.940;8.432;2022-09-09T04:37:18;6.50;;;2.10;;
20449;SDS011;10384;51.940;8.432;2022-09-09T04:39:44;3.33;;;1.43;;
20449;SDS011;10384;51.940;8.432;2022-09-09T04:42:10;3.70;;;1.47;;
20449;SDS011;10384;51.940;8.432;2022-09-09T04:44:36;5.10;;;1.70;;
20449;SDS011;10384;51.940;8.432;2022-09-09T04:47:02;3.60;;;1.40;;
20449;SDS011;10384;51.940;8.432;2022-09-09T04:49:28;3.07;;;1.40;;
20449;SDS011;10384;51.940;8.432;2022-09-09T04:51:56;3.17;;;1.47;;
20449;SDS011;10384;51.940;8.432;2022-09-09T04:54:22;1.87;;;1.33;;
20449;SDS011;10384;51.940;8.432;2022-09-09T04:56:49;2.40;;;1.20;;
20449;SDS011;10384;51.940;8.432;2022-09-09T04:59:15;3.70;;;1.30;;
20449;SDS011;10384;51.940;8.432;2022-09-09T05:01:41;5.53;;;1.50;;
20449;SDS011;10384;51.940;8.432;2022-09-09T05:04:07;2.63;;;1.00;;
20449;SDS011;10384;51.940;8.432;2022-09-09T05:06:33;2.73;;;1.30;;
20449;SDS011;10384;51.940;8.432;2022-09-09T05:09:01;3.70;;;1.40;;
20449;SDS011;10384;51.940;8.432;2022-09-09T05:11:28;2.13;;;1.43;;
20449;SDS011;10384;51.940;8.432;2022-09-09T05:13:54;3.27;;;1.40;;
20449;SDS011;10384;51.940;8.432;2022-09-09T05:16:21;3.07;;;1.33;;
20449;SDS011;10384;51.940;8.432;2022-09-09T05:18:48;4.53;;;1.43;;
20449;SDS011;10384;51.940;8.432;2022-09-09T05:21:15;2.80;;;1.60;;
20449;SDS011;10384;51.940;8.432;2022-09-09T05:23:41;3.77;;;1.60;;
20449;SDS011;10384;51.940;8.432;2022-09-09T05:26:09;2.60;;;1.73;;
20449;SDS011;10384;51.940;8.432;2022-09-09T05:28:37;5.20;;;2.00;;
20449;SDS011;10384;51.940;8.432;2022-09-09T05:31:04;3.43;;;1.63;;
20449;SDS011;10384;51.940;8.432;2022-09-09T05:33:32;4.33;;;1.80;;
20449;SDS011;10384;51.940;8.432;2022-09-09T05:36:00;3.00;;;1.90;;
20449;SDS011;10384;51.940;8.432;2022-09-09T05:38:27;2.87;;;1.57;;
20449;SDS011;10384;51.940;8.432;2022-09-09T05:40:54;3.30;;;1.97;;
20449;SDS011;10384;51.940;8.432;2022-09-09T05:43:21;4.57;;;1.87;;
20449;SDS011;10384;51.940;8.432;2022-09-09T05:45:48;3.63;;;1.60;;
20449;SDS011;10384;51.940;8.432;2022-09-09T05:48:14;3.00;;;1.70;;
20449;SDS011;10384;51.940;8.432;2022-09-09T05:50:41;3.00;;;1.60;;
20449;SDS011;10384;51.940;8.432;2022-09-09T05:53:07;5.40;;;1.90;;
20449;SDS011;10384;51.940;8.432;2022-09-09T05:55:33;5.37;;;2.30;;
20449;SDS011;10384;51.940;8.432;2022-09-09T05:57:59;7.73;;;1.87;;
20449;SDS011;10384;51.940;8.432;2022-09-09T06:00:26;5.47;;;2.07;;
20449;SDS011;10384;51.940;8.432;2022-09-09T06:02:52;5.73;;;1.67;;
20449;SDS011;10384;51.940;8.432;2022-09-09T06:05:18;3.27;;;2.00;;
20449;SDS011;10384;51.940;8.432;2022-09-09T06:07:45;3.00;;;1.77;;
20449;SDS011;10384;51.940;8.432;2022-09-09T06:10:11;2.77;;;1.50;;
20449;SDS011;10384;51.940;8.432;2022-09-09T06:12:40;2.80;;;1.90;;
20449;SDS011;10384;51.940;8.432;2022-09-09T06:15:06;2.47;;;1.70;;
20449;SDS011;10384;51.940;8.432;2022-09-09T06:17:34;4.53;;;1.80;;
20449;SDS011;10384;51.940;8.432;2022-09-09T06:19:59;2.90;;;2.03;;
20449;SDS011;10384;51.940;8.432;2022-09-09T06:22:25;3.70;;;1.60;;
20449;SDS011;10384;51.940;8.432;2022-09-09T06:24:51;4.77;;;2.10;;
20449;SDS011;10384;51.940;8.432;2022-09-09T06:27:18;3.10;;;1.77;;
20449;SDS011;10384;51.940;8.432;2022-09-09T06:29:44;4.57;;;1.80;;
20449;SDS011;10384;51.940;8.432;2022-09-09T06:32:10;5.40;;;2.07;;
20449;SDS011;10384;51.940;8.432;2022-09-09T06:34:36;2.07;;;1.77;;
20449;SDS011;10384;51.940;8.432;2022-09-09T06:37:02;4.80;;;1.80;;
20449;SDS011;10384;51.940;8.432;2022-09-09T06:39:28;3.17;;;2.00;;
20449;SDS011;10384;51.940;8.432;2022-09-09T06:41:54;4.50;;;2.00;;
20449;SDS011;10384;51.940;8.432;2022-09-09T06:44:20;3.57;;;1.90;;
20449;SDS011;10384;51.940;8.432;2022-09-09T06:46:47;4.70;;;2.43;;
20449;SDS011;10384;51.940;8.432;2022-09-09T06:49:13;4.93;;;2.13;;
20449;SDS011;10384;51.940;8.432;2022-09-09T06:51:39;2.73;;;1.73;;
20449;SDS011;10384;51.940;8.432;2022-09-09T06:54:07;3.13;;;1.80;;
20449;SDS011;10384;51.940;8.432;2022-09-09T06:56:35;5.27;;;1.83;;
20449;SDS011;10384;51.940;8.432;2022-09-09T06:59:02;3.63;;;1.80;;
20449;SDS011;10384;51.940;8.432;2022-09-09T07:01:32;4.73;;;1.80;;
20449;SDS011;10384;51.940;8.432;2022-09-09T07:03:59;4.17;;;1.90;;
20449;SDS011;10384;51.940;8.432;2022-09-09T07:06:29;3.27;;;1.97;;
20449;SDS011;10384;51.940;8.432;2022-09-09T07:08:56;6.10;;;2.43;;
20449;SDS011;10384;51.940;8.432;2022-09-09T07:11:25;2.63;;;1.60;;
20449;SDS011;10384;51.940;8.432;2022-09-09T07:13:52;5.03;;;1.50;;
20449;SDS011;10384;51.940;8.432;2022-09-09T07:16:18;3.43;;;1.77;;
20449;SDS011;10384;51.940;8.432;2022-09-09T07:18:45;1.73;;;1.30;;
20449;SDS011;10384;51.940;8.432;2022-09-09T07:21:12;5.47;;;1.73;;
20449;SDS011;10384;51.940;8.432;2022-09-09T07:23:39;4.37;;;2.20;;
20449;SDS011;10384;51.940;8.432;2022-09-09T07:26:12;2.70;;;1.23;;
20449;SDS011;10384;51.940;8.432;2022-09-09T07:28:38;2.63;;;1.70;;
20449;SDS011;10384;51.940;8.432;2022-09-09T07:31:05;5.93;;;1.80;;
20449;SDS011;10384;51.940;8.432;2022-09-09T07:33:32;3.40;;;1.50;;
20449;SDS011;10384;51.940;8.432;2022-09-09T07:36:06;2.70;;;1.50;;
20449;SDS011;10384;51.940;8.432;2022-09-09T07:38:33;4.33;;;1.20;;
20449;SDS011;10384;51.940;8.432;2022-09-09T07:41:07;5.03;;;1.70;;
20449;SDS011;10384;51.940;8.432;2022-09-09T07:43:37;6.10;;;1.30;;
20449;SDS011;10384;51.940;8.432;2022-09-09T07:46:03;1.37;;;1.13;;
20449;SDS011;10384;51.940;8.432;2022-09-09T07:48:30;1.67;;;1.30;;
20449;SDS011;10384;51.940;8.432;2022-09-09T07:53:51;4.27;;;1.50;;
20449;SDS011;10384;51.940;8.432;2022-09-09T07:56:18;3.30;;;1.23;;
20449;SDS011;10384;51.940;8.432;2022-09-09T07:58:47;4.17;;;1.40;;
20449;SDS011;10384;51.940;8.432;2022-09-09T08:01:15;2.43;;;1.30;;
20449;SDS011;10384;51.940;8.432;2022-09-09T08:03:42;2.63;;;1.30;;
20449;SDS011;10384;51.940;8.432;2022-09-09T08:06:09;3.97;;;1.17;;
20449;SDS011;10384;51.940;8.432;2022-09-09T08:08:36;2.13;;;1.30;;
20449;SDS011;10384;51.940;8.432;2022-09-09T08:11:07;4.33;;;1.20;;
20449;SDS011;10384;51.940;8.432;2022-09-09T08:13:36;3.93;;;1.20;;
20449;SDS011;10384;51.940;8.432;2022-09-09T08:16:16;4.10;;;1.30;;
20449;SDS011;10384;51.940;8.432;2022-09-09T08:18:42;3.47;;;1.10;;
20449;SDS011;10384;51.940;8.432;2022-09-09T08:21:10;1.50;;;1.00;;
20449;SDS011;10384;51.940;8.432;2022-09-09T08:23:37;5.70;;;1.30;;
20449;SDS011;10384;51.940;8.432;2022-09-09T08:26:05;4.07;;;1.10;;
20449;SDS011;10384;51.940;8.432;2022-09-09T08:28:31;1.50;;;1.17;;
20449;SDS011;10384;51.940;8.432;2022-09-09T08:31:04;2.33;;;1.20;;
20449;SDS011;10384;51.940;8.432;2022-09-09T08:33:31;5.37;;;1.27;;
20449;SDS011;10384;51.940;8.432;2022-09-09T08:35:58;3.43;;;1.20;;
20449;SDS011;10384;51.940;8.432;2022-09-09T08:38:24;2.60;;;1.10;;
20449;SDS011;10384;51.940;8.432;2022-09-09T08:40:50;5.07;;;1.10;;
20449;SDS011;10384;51.940;8.432;2022-09-09T08:43:20;5.00;;;1.10;;
20449;SDS011;10384;51.940;8.432;2022-09-09T08:45:50;3.00;;;1.30;;
20449;SDS011;10384;51.940;8.432;2022-09-09T08:50:47;4.73;;;1.00;;
20449;SDS011;10384;51.940;8.432;2022-09-09T08:53:19;3.50;;;1.00;;
20449;SDS011;10384;51.940;8.432;2022-09-09T08:58:19;4.03;;;1.77;;
20449;SDS011;10384;51.940;8.432;2022-09-09T09:06:06;2.13;;;1.20;;
20449;SDS011;10384;51.940;8.432;2022-09-09T09:08:43;2.40;;;0.90;;
20449;SDS011;10384;51.940;8.432;2022-09-09T09:11:14;1.73;;;1.00;;
20449;SDS011;10384;51.940;8.432;2022-09-09T09:13:43;2.07;;;1.00;;
20449;SDS011;10384;51.940;8.432;2022-09-09T09:16:17;5.03;;;1.30;;
20449;SDS011;10384;51.940;8.432;2022-09-09T09:18:45;1.63;;;1.00;;
20449;SDS011;10384;51.940;8.432;2022-09-09T09:21:12;1.97;;;1.10;;
20449;SDS011;10384;51.940;8.432;2022-09-09T09:23:59;1.57;;;1.10;;
20449;SDS011;10384;51.940;8.432;2022-09-09T09:26:27;1.40;;;1.00;;
20449;SDS011;10384;51.940;8.432;2022-09-09T09:28:55;6.63;;;1.20;;
20449;SDS011;10384;51.940;8.432;2022-09-09T09:31:22;2.40;;;1.57;;
20449;SDS011;10384;51.940;8.432;2022-09-09T09:33:52;2.43;;;0.90;;
20449;SDS011;10384;51.940;8.432;2022-09-09T09:36:19;2.67;;;1.47;;
20449;SDS011;10384;51.940;8.432;2022-09-09T09:38:58;1.37;;;1.03;;
20449;SDS011;10384;51.940;8.432;2022-09-09T09:41:28;3.50;;;0.80;;
20449;SDS011;10384;51.940;8.432;2022-09-09T09:43:55;4.20;;;1.20;;
20449;SDS011;10384;51.940;8.432;2022-09-09T09:46:22;3.93;;;1.03;;
20449;SDS011;10384;51.940;8.432;2022-09-09T09:48:58;6.20;;;1.00;;
20449;SDS011;10384;51.940;8.432;2022-09-09T09:51:24;3.37;;;0.80;;
20449;SDS011;10384;51.940;8.432;2022-09-09T09:53:51;4.27;;;1.20;;
20449;SDS011;10384;51.940;8.432;2022-09-09T09:56:25;2.93;;;1.33;;
20449;SDS011;10384;51.940;8.432;2022-09-09T09:58:52;2.50;;;0.70;;
20449;SDS011;10384;51.940;8.432;2022-09-09T10:01:32;2.27;;;0.80;;
20449;SDS011;10384;51.940;8.432;2022-09-09T10:03:59;4.27;;;1.00;;
20449;SDS011;10384;51.940;8.432;2022-09-09T10:06:33;4.07;;;1.73;;
20449;SDS011;10384;51.940;8.432;2022-09-09T10:09:01;3.33;;;1.10;;
20449;SDS011;10384;51.940;8.432;2022-09-09T10:11:30;5.97;;;1.30;;
20449;SDS011;10384;51.940;8.432;2022-09-09T10:19:13;5.37;;;0.90;;
20449;SDS011;10384;51.940;8.432;2022-09-09T10:24:12;3.17;;;0.87;;
20449;SDS011;10384;51.940;8.432;2022-09-09T10:29:27;4.03;;;1.00;;
20449;SDS011;10384;51.940;8.432;2022-09-09T10:34:50;3.57;;;1.60;;
20449;SDS011;10384;51.940;8.432;2022-09-09T10:40:12;4.20;;;2.33;;
20449;SDS011;10384;51.940;8.432;2022-09-09T10:42:40;2.60;;;1.10;;
20449;SDS011;10384;51.940;8.432;2022-09-09T10:45:14;3.43;;;1.03;;
20449;SDS011;10384;51.940;8.432;2022-09-09T10:50:25;2.83;;;1.17;;
20449;SDS011;10384;51.940;8.432;2022-09-09T10:55:45;4.30;;;1.10;;
20449;SDS011;10384;51.940;8.432;2022-09-09T10:58:15;2.10;;;1.00;;
20449;SDS011;10384;51.940;8.432;2022-09-09T11:00:45;5.40;;;1.20;;
20449;SDS011;10384;51.940;8.432;2022-09-09T11:03:15;2.10;;;1.20;;
20449;SDS011;10384;51.940;8.432;2022-09-09T11:05:43;1.80;;;1.00;;
20449;SDS011;10384;51.940;8.432;2022-09-09T11:08:15;2.30;;;1.40;;
20449;SDS011;10384;51.940;8.432;2022-09-09T11:10:44;3.63;;;1.40;;
20449;SDS011;10384;51.940;8.432;2022-09-09T11:13:18;3.73;;;1.30;;
20449;SDS011;10384;51.940;8.432;2022-09-09T11:15:49;2.77;;;1.00;;
20449;SDS011;10384;51.940;8.432;2022-09-09T11:18:21;2.90;;;1.10;;
20449;SDS011;10384;51.940;8.432;2022-09-09T11:20:52;1.63;;;1.00;;
20449;SDS011;10384;51.940;8.432;2022-09-09T11:23:22;6.33;;;1.20;;
20449;SDS011;10384;51.940;8.432;2022-09-09T11:25:51;2.90;;;0.97;;
20449;SDS011;10384;51.940;8.432;2022-09-09T11:29:09;2.60;;;0.87;;
20449;SDS011;10384;51.940;8.432;2022-09-09T11:33:46;3.87;;;0.80;;
20449;SDS011;10384;51.940;8.432;2022-09-09T11:38:52;3.63;;;1.30;;
20449;SDS011;10384;51.940;8.432;2022-09-09T11:41:19;3.23;;;0.93;;
20449;SDS011;10384;51.940;8.432;2022-09-09T11:43:47;1.13;;;0.70;;
20449;SDS011;10384;51.940;8.432;2022-09-09T11:46:14;3.30;;;0.77;;
20449;SDS011;10384;51.940;8.432;2022-09-09T11:48:44;4.27;;;0.77;;
20449;SDS011;10384;51.940;8.432;2022-09-09T11:54:47;2.90;;;0.80;;
20449;SDS011;10384;51.940;8.432;2022-09-09T11:56:43;1.60;;;0.77;;
20449;SDS011;10384;51.940;8.432;2022-09-09T11:59:22;3.03;;;0.87;;
20449;SDS011;10384;51.940;8.432;2022-09-09T12:04:37;4.27;;;0.83;;
20449;SDS011;10384;51.940;8.432;2022-09-09T12:14:42;2.23;;;0.50;;
20449;SDS011;10384;51.940;8.432;2022-09-09T12:17:30;3.43;;;0.50;;
20449;SDS011;10384;51.940;8.432;2022-09-09T12:20:03;3.10;;;0.93;;
20449;SDS011;10384;51.940;8.432;2022-09-09T12:22:37;1.63;;;1.00;;
20449;SDS011;10384;51.940;8.432;2022-09-09T12:27:53;2.20;;;0.70;;
20449;SDS011;10384;51.940;8.432;2022-09-09T12:30:22;2.70;;;0.67;;
20449;SDS011;10384;51.940;8.432;2022-09-09T12:33:02;1.67;;;0.60;;
20449;SDS011;10384;51.940;8.432;2022-09-09T12:35:28;2.50;;;0.77;;
20449;SDS011;10384;51.940;8.432;2022-09-09T12:37:56;2.33;;;0.73;;
20449;SDS011;10384;51.940;8.432;2022-09-09T12:40:24;2.33;;;0.87;;
20449;SDS011;10384;51.940;8.432;2022-09-09T12:42:51;2.50;;;0.80;;
20449;SDS011;10384;51.940;8.432;2022-09-09T12:45:21;5.63;;;1.43;;
20449;SDS011;10384;51.940;8.432;2022-09-09T12:47:51;3.87;;;0.90;;
20449;SDS011;10384;51.940;8.432;2022-09-09T12:50:18;4.50;;;1.10;;
20449;SDS011;10384;51.940;8.432;2022-09-09T12:52:46;4.83;;;0.80;;
20449;SDS011;10384;51.940;8.432;2022-09-09T12:55:16;2.57;;;1.00;;
20449;SDS011;10384;51.940;8.432;2022-09-09T12:57:43;1.80;;;0.70;;
20449;SDS011;10384;51.940;8.432;2022-09-09T13:02:45;2.47;;;0.77;;
20449;SDS011;10384;51.940;8.432;2022-09-09T13:05:14;1.67;;;0.90;;
20449;SDS011;10384;51.940;8.432;2022-09-09T13:07:41;2.80;;;1.30;;
20449;SDS011;10384;51.940;8.432;2022-09-09T13:10:10;3.03;;;1.50;;
20449;SDS011;10384;51.940;8.432;2022-09-09T13:12:36;2.50;;;1.20;;
20449;SDS011;10384;51.940;8.432;2022-09-09T13:15:03;3.43;;;1.30;;
20449;SDS011;10384;51.940;8.432;2022-09-09T13:17:29;0.90;;;0.90;;
20449;SDS011;10384;51.940;8.432;2022-09-09T13:19:55;1.60;;;1.00;;
20449;SDS011;10384;51.940;8.432;2022-09-09T13:22:40;1.87;;;1.20;;
20449;SDS011;10384;51.940;8.432;2022-09-09T13:27:40;1.97;;;1.03;;
20449;SDS011;10384;51.940;8.432;2022-09-09T13:35:58;1.23;;;0.70;;
20449;SDS011;10384;51.940;8.432;2022-09-09T13:38:25;1.57;;;0.83;;
20449;SDS011;10384;51.940;8.432;2022-09-09T13:40:55;2.63;;;0.70;;
20449;SDS011;10384;51.940;8.432;2022-09-09T13:43:22;1.23;;;0.70;;
20449;SDS011;10384;51.940;8.432;2022-09-09T13:45:53;2.30;;;0.60;;
20449;SDS011;10384;51.940;8.432;2022-09-09T13:48:20;2.50;;;0.50;;
20449;SDS011;10384;51.940;8.432;2022-09-09T13:50:56;1.10;;;0.53;;
20449;SDS011;10384;51.940;8.432;2022-09-09T13:53:22;1.13;;;0.60;;
20449;SDS011;10384;51.940;8.432;2022-09-09T13:55:48;0.77;;;0.50;;
20449;SDS011;10384;51.940;8.432;2022-09-09T13:58:15;1.77;;;0.97;;
20449;SDS011;10384;51.940;8.432;2022-09-09T14:00:43;0.77;;;0.60;;
20449;SDS011;10384;51.940;8.432;2022-09-09T14:03:09;2.03;;;0.53;;
20449;SDS011;10384;51.940;8.432;2022-09-09T14:05:35;2.23;;;1.20;;
20449;SDS011;10384;51.940;8.432;2022-09-09T14:08:05;2.80;;;0.60;;
20449;SDS011;10384;51.940;8.432;2022-09-09T14:10:32;1.60;;;0.77;;
20449;SDS011;10384;51.940;8.432;2022-09-09T14:13:00;2.60;;;1.00;;
20449;SDS011;10384;51.940;8.432;2022-09-09T14:15:26;3.87;;;0.80;;
20449;SDS011;10384;51.940;8.432;2022-09-09T14:17:53;1.57;;;0.70;;
20449;SDS011;10384;51.940;8.432;2022-09-09T14:20:19;2.00;;;0.93;;
20449;SDS011;10384;51.940;8.432;2022-09-09T14:22:45;3.03;;;0.63;;
20449;SDS011;10384;51.940;8.432;2022-09-09T14:25:11;2.40;;;0.60;;
20449;SDS011;10384;51.940;8.432;2022-09-09T14:27:40;0.87;;;0.50;;
20449;SDS011;10384;51.940;8.432;2022-09-09T14:30:07;1.87;;;0.97;;
20449;SDS011;10384;51.940;8.432;2022-09-09T14:32:34;4.23;;;1.07;;
20449;SDS011;10384;51.940;8.432;2022-09-09T14:35:00;5.20;;;1.10;;
20449;SDS011;10384;51.940;8.432;2022-09-09T14:37:26;1.30;;;1.00;;
20449;SDS011;10384;51.940;8.432;2022-09-09T14:39:53;1.27;;;1.10;;
20449;SDS011;10384;51.940;8.432;2022-09-09T14:42:20;1.13;;;0.70;;
20449;SDS011;10384;51.940;8.432;2022-09-09T14:44:47;1.53;;;0.77;;
20449;SDS011;10384;51.940;8.432;2022-09-09T14:47:15;2.20;;;0.70;;
20449;SDS011;10384;51.940;8.432;2022-09-09T14:49:41;1.50;;;0.70;;
20449;SDS011;10384;51.940;8.432;2022-09-09T14:52:08;2.23;;;0.67;;
20449;SDS011;10384;51.940;8.432;2022-09-09T14:54:34;1.57;;;0.60;;
20449;SDS011;10384;51.940;8.432;2022-09-09T14:57:00;4.23;;;0.70;;
20449;SDS011;10384;51.940;8.432;2022-09-09T14:59:26;2.80;;;1.07;;
20449;SDS011;10384;51.940;8.432;2022-09-09T15:01:52;1.50;;;0.60;;
20449;SDS011;10384;51.940;8.432;2022-09-09T15:04:18;2.67;;;0.67;;
20449;SDS011;10384;51.940;8.432;2022-09-09T15:06:45;1.03;;;0.60;;
20449;SDS011;10384;51.940;8.432;2022-09-09T15:09:13;0.80;;;0.60;;
20449;SDS011;10384;51.940;8.432;2022-09-09T15:11:39;1.20;;;0.73;;
20449;SDS011;10384;51.940;8.432;2022-09-09T15:14:05;5.97;;;1.33;;
20449;SDS011;10384;51.940;8.432;2022-09-09T15:16:32;0.53;;;0.53;;
20449;SDS011;10384;51.940;8.432;2022-09-09T15:18:58;2.50;;;0.80;;
20449;SDS011;10384;51.940;8.432;2022-09-09T15:21:26;0.70;;;0.50;;
20449;SDS011;10384;51.940;8.432;2022-09-09T15:23:52;2.63;;;0.80;;
20449;SDS011;10384;51.940;8.432;2022-09-09T15:26:19;4.37;;;0.87;;
20449;SDS011;10384;51.940;8.432;2022-09-09T15:28:46;2.17;;;0.80;;
20449;SDS011;10384;51.940;8.432;2022-09-09T15:31:19;2.27;;;0.70;;
20449;SDS011;10384;51.940;8.432;2022-09-09T15:33:49;1.20;;;0.80;;
20449;SDS011;10384;51.940;8.432;2022-09-09T15:36:16;1.90;;;0.80;;
20449;SDS011;10384;51.940;8.432;2022-09-09T15:38:43;3.00;;;0.80;;
20449;SDS011;10384;51.940;8.432;2022-09-09T15:41:09;5.37;;;1.40;;
20449;SDS011;10384;51.940;8.432;2022-09-09T15:43:35;2.23;;;0.70;;
20449;SDS011;10384;51.940;8.432;2022-09-09T15:46:44;2.80;;;1.20;;
20449;SDS011;10384;51.940;8.432;2022-09-09T15:48:52;3.63;;;1.10;;
20449;SDS011;10384;51.940;8.432;2022-09-09T15:51:19;2.37;;;1.03;;
20449;SDS011;10384;51.940;8.432;2022-09-09T15:53:45;2.97;;;0.80;;
20449;SDS011;10384;51.940;8.432;2022-09-09T15:56:11;2.30;;;1.30;;
20449;SDS011;10384;51.940;8.432;2022-09-09T15:58:37;2.50;;;1.27;;
20449;SDS011;10384;51.940;8.432;2022-09-09T16:01:04;4.03;;;1.83;;
20449;SDS011;10384;51.940;8.432;2022-09-09T16:03:37;2.40;;;1.23;;
20449;SDS011;10384;51.940;8.432;2022-09-09T16:06:03;2.63;;;1.20;;
20449;SDS011;10384;51.940;8.432;2022-09-09T16:08:33;1.13;;;1.00;;
20449;SDS011;10384;51.940;8.432;2022-09-09T16:11:09;4.63;;;1.10;;
20449;SDS011;10384;51.940;8.432;2022-09-09T16:13:36;1.40;;;0.70;;
20449;SDS011;10384;51.940;8.432;2022-09-09T16:16:05;1.80;;;0.83;;
20449;SDS011;10384;51.940;8.432;2022-09-09T16:18:41;2.30;;;0.97;;
20449;SDS011;10384;51.940;8.432;2022-09-09T16:21:08;0.70;;;0.70;;
20449;SDS011;10384;51.940;8.432;2022-09-09T16:23:36;1.80;;;0.63;;
20449;SDS011;10384;51.940;8.432;2022-09-09T16:26:03;1.37;;;0.77;;
20449;SDS011;10384;51.940;8.432;2022-09-09T16:28:30;1.67;;;0.80;;
20449;SDS011;10384;51.940;8.432;2022-09-09T16:30:56;1.70;;;0.73;;
20449;SDS011;10384;51.940;8.432;2022-09-09T16:33:23;3.47;;;0.90;;
20449;SDS011;10384;51.940;8.432;2022-09-09T16:35:49;2.03;;;0.70;;
20449;SDS011;10384;51.940;8.432;2022-09-09T16:38:15;2.30;;;1.17;;
20449;SDS011;10384;51.940;8.432;2022-09-09T16:40:41;2.47;;;0.70;;